createdAt,value
2022-11-18T00:01:09.285Z,8.20
2022-11-18T00:04:12.381Z,8.20
2022-11-18T00:07:15.504Z,8.10
2022-11-18T00:10:19.059Z,8.00
2022-11-18T00:13:41.066Z,8.00
2022-11-18T00:16:44.264Z,7.80
2022-11-18T00:19:47.340Z,7.60
2022-11-18T00:22:50.443Z,7.70
2022-11-18T00:25:53.502Z,7.60
2022-11-18T00:28:57.927Z,7.60
2022-11-18T00:32:01.063Z,7.60
2022-11-18T00:35:04.204Z,7.60
2022-11-18T00:38:07.293Z,7.70
2022-11-18T00:41:12.022Z,7.80
2022-11-18T00:44:15.523Z,8.00
2022-11-18T00:47:18.703Z,8.10
2022-11-18T00:50:21.758Z,8.10
2022-11-18T00:53:26.292Z,8.10
2022-11-18T00:56:29.575Z,8.10
2022-11-18T00:59:34.084Z,8.10
2022-11-18T01:02:37.767Z,8.10
2022-11-18T01:05:41.513Z,8.10
2022-11-18T01:08:44.622Z,8.20
2022-11-18T01:12:01.594Z,8.30
2022-11-18T01:15:06.780Z,8.30
2022-11-18T01:18:10.132Z,8.40
2022-11-18T01:21:13.464Z,8.40
2022-11-18T01:24:17.471Z,8.30
2022-11-18T01:27:20.573Z,8.00
2022-11-18T01:30:25.220Z,7.90
2022-11-18T01:33:28.339Z,7.90
2022-11-18T01:36:31.636Z,8.10
2022-11-18T01:39:35.226Z,8.10
2022-11-18T01:42:38.374Z,8.20
2022-11-18T01:45:43.884Z,8.10
2022-11-18T01:48:49.996Z,8.20
2022-11-18T01:51:57.163Z,8.20
2022-11-18T01:55:06.260Z,8.30
2022-11-18T01:58:14.123Z,8.40
2022-11-18T02:01:18.727Z,8.40
2022-11-18T02:04:22.783Z,8.40
2022-11-18T02:07:26.592Z,8.40
2022-11-18T02:10:29.786Z,8.40
2022-11-18T02:13:33.788Z,8.50
2022-11-18T02:16:54.087Z,8.40
2022-11-18T02:20:28.270Z,8.50
2022-11-18T02:24:14.931Z,8.40
2022-11-18T02:27:53.191Z,8.10
2022-11-18T02:31:03.357Z,8.20
2022-11-18T02:34:15.528Z,8.30
2022-11-18T02:37:23.716Z,8.40
2022-11-18T02:40:30.974Z,8.40
2022-11-18T02:43:39.724Z,8.50
2022-11-18T02:46:48.548Z,8.40
2022-11-18T02:49:55.613Z,8.50
2022-11-18T02:53:01.777Z,8.50
2022-11-18T02:56:06.089Z,8.50
2022-11-18T02:59:09.236Z,8.60
2022-11-18T03:02:17.777Z,8.60
2022-11-18T03:05:27.164Z,8.70
2022-11-18T03:08:37.626Z,8.70
2022-11-18T03:11:49.584Z,8.70
2022-11-18T03:15:02.239Z,8.60
2022-11-18T03:18:17.670Z,8.60
2022-11-18T03:21:27.014Z,8.50
2022-11-18T03:24:33.156Z,8.60
2022-11-18T03:27:40.141Z,8.50
2022-11-18T03:30:49.521Z,8.40
2022-11-18T03:33:59.055Z,8.40
2022-11-18T03:37:10.037Z,8.40
2022-11-18T03:40:19.001Z,8.40
2022-11-18T03:43:25.582Z,8.40
2022-11-18T03:46:32.838Z,8.40
2022-11-18T03:49:42.192Z,8.50
2022-11-18T03:52:46.514Z,8.60
2022-11-18T03:55:54.814Z,8.60
2022-11-18T03:59:05.244Z,8.70
2022-11-18T04:02:13.995Z,8.60
2022-11-18T04:05:19.979Z,8.50
2022-11-18T04:08:28.098Z,8.50
2022-11-18T04:11:53.837Z,8.50
2022-11-18T04:14:56.985Z,8.50
2022-11-18T04:18:00.196Z,8.50
2022-11-18T04:21:04.720Z,8.50
2022-11-18T04:24:08.386Z,8.50
2022-11-18T04:27:11.524Z,8.40
2022-11-18T04:30:15.026Z,8.40
2022-11-18T04:33:18.093Z,8.40
2022-11-18T04:36:22.624Z,8.50
2022-11-18T04:39:25.812Z,8.50
2022-11-18T04:42:28.967Z,8.50
2022-11-18T04:45:32.037Z,8.50
2022-11-18T04:48:35.438Z,8.50
2022-11-18T04:51:40.140Z,8.50
2022-11-18T04:54:43.238Z,8.50
2022-11-18T04:57:46.347Z,8.40
2022-11-18T05:00:51.905Z,8.30
2022-11-18T05:03:55.152Z,8.20
2022-11-18T05:07:00.254Z,8.30
2022-11-18T05:10:03.405Z,8.20
2022-11-18T05:13:05.535Z,8.20
2022-11-18T05:16:08.870Z,8.10
2022-11-18T05:19:12.511Z,8.10
2022-11-18T05:22:17.761Z,8.00
2022-11-18T05:25:20.849Z,8.00
2022-11-18T05:28:23.961Z,8.00
2022-11-18T05:31:27.198Z,7.90
2022-11-18T05:34:30.296Z,7.90
2022-11-18T05:37:34.989Z,7.90
2022-11-18T05:40:38.089Z,7.80
2022-11-18T05:43:40.185Z,7.80
2022-11-18T05:46:43.310Z,7.80
2022-11-18T05:49:46.402Z,7.80
2022-11-18T05:52:50.917Z,7.80
2022-11-18T05:55:59.747Z,7.80
2022-11-18T05:59:02.896Z,8.00
2022-11-18T06:02:09.185Z,8.00
2022-11-18T06:05:14.005Z,7.90
2022-11-18T06:08:20.324Z,7.90
2022-11-18T06:11:23.518Z,7.90
2022-11-18T06:14:33.066Z,8.00
2022-11-18T06:17:40.795Z,8.10
2022-11-18T06:20:44.356Z,8.20
2022-11-18T06:23:48.936Z,8.20
2022-11-18T06:26:52.452Z,8.30
2022-11-18T06:29:55.550Z,8.40
2022-11-18T06:32:58.668Z,8.40
2022-11-18T06:36:01.777Z,8.40
2022-11-18T06:39:07.672Z,8.50
2022-11-18T06:42:10.803Z,8.50
2022-11-18T06:45:13.986Z,8.50
2022-11-18T06:48:17.169Z,8.50
2022-11-18T06:51:20.397Z,8.40
2022-11-18T06:54:24.839Z,8.30
2022-11-18T06:57:27.957Z,8.30
2022-11-18T07:00:31.122Z,8.40
2022-11-18T07:03:34.347Z,8.40
2022-11-18T07:06:38.050Z,8.40
2022-11-18T07:09:42.549Z,8.50
2022-11-18T07:12:45.694Z,8.40
2022-11-18T07:15:48.861Z,8.50
2022-11-18T07:18:53.766Z,8.50
2022-11-18T07:21:56.857Z,8.70
2022-11-18T07:25:01.351Z,8.70
2022-11-18T07:28:04.499Z,8.70
2022-11-18T07:31:09.397Z,8.70
2022-11-18T07:34:14.334Z,8.70
2022-11-18T07:37:18.345Z,8.70
2022-11-18T07:40:22.790Z,8.70
2022-11-18T07:43:26.084Z,8.80
2022-11-18T07:46:31.230Z,8.90
2022-11-18T07:49:34.352Z,8.90
2022-11-18T07:52:37.455Z,9.00
2022-11-18T07:55:42.027Z,9.10
2022-11-18T07:58:46.064Z,9.10
2022-11-18T08:01:49.233Z,9.10
2022-11-18T08:04:52.401Z,9.10
2022-11-18T08:07:55.515Z,9.20
2022-11-18T08:11:01.484Z,9.20
2022-11-18T08:14:04.952Z,9.20
2022-11-18T08:17:08.094Z,9.10
2022-11-18T08:20:12.572Z,9.10
2022-11-18T08:23:16.287Z,9.20
2022-11-18T08:26:20.946Z,9.20
2022-11-18T08:29:25.576Z,9.20
2022-11-18T08:32:29.497Z,9.30
2022-11-18T08:35:34.079Z,9.40
2022-11-18T08:38:37.332Z,9.40
2022-11-18T08:41:43.822Z,9.40
2022-11-18T08:44:46.939Z,9.40
2022-11-18T08:47:50.068Z,9.50
2022-11-18T08:50:53.705Z,9.50
2022-11-18T08:53:56.895Z,9.40
2022-11-18T08:57:01.551Z,9.40
2022-11-18T09:00:05.454Z,9.40
2022-11-18T09:03:08.621Z,9.40
2022-11-18T09:06:13.373Z,9.30
2022-11-18T09:09:17.143Z,9.40
2022-11-18T09:12:21.675Z,9.40
2022-11-18T09:15:26.350Z,9.40
2022-11-18T09:18:30.106Z,9.40
2022-11-18T09:21:36.836Z,9.40
2022-11-18T09:24:43.636Z,9.40
2022-11-18T09:27:48.713Z,9.40
2022-11-18T09:30:51.915Z,9.50
2022-11-18T09:33:55.092Z,9.50
2022-11-18T09:36:58.237Z,9.50
2022-11-18T09:40:01.349Z,9.50
2022-11-18T09:43:15.333Z,9.60
2022-11-18T09:46:25.920Z,9.60
2022-11-18T09:49:32.832Z,9.70
2022-11-18T09:52:41.999Z,9.70
2022-11-18T09:55:46.022Z,9.80
2022-11-18T09:58:50.948Z,9.80
2022-11-18T10:01:56.881Z,9.50
2022-11-18T10:05:09.594Z,9.30
2022-11-18T10:08:22.339Z,9.30
2022-11-18T10:11:27.672Z,9.30
2022-11-18T10:14:47.281Z,9.40
2022-11-18T10:17:57.795Z,9.40
2022-11-18T10:21:06.938Z,9.40
2022-11-18T10:24:14.579Z,9.50
2022-11-18T10:27:19.221Z,9.50
2022-11-18T10:30:25.826Z,9.50
2022-11-18T10:33:30.850Z,9.60
2022-11-18T10:36:35.507Z,9.60
2022-11-18T10:39:51.570Z,9.50
2022-11-18T10:42:54.709Z,9.50
2022-11-18T10:46:16.364Z,9.50
2022-11-18T10:49:19.478Z,9.40
2022-11-18T10:52:23.046Z,9.40
2022-11-18T10:55:26.792Z,9.40
2022-11-18T10:58:32.354Z,9.40
2022-11-18T11:01:36.917Z,9.40
2022-11-18T11:04:41.863Z,9.50
2022-11-18T11:07:45.360Z,9.50
2022-11-18T11:10:56.910Z,9.50
2022-11-18T11:14:07.524Z,9.50
2022-11-18T11:17:15.331Z,9.50
2022-11-18T11:20:22.606Z,9.50
2022-11-18T11:23:26.850Z,9.60
2022-11-18T11:30:14.119Z,9.70
2022-11-18T11:33:31.148Z,9.70
2022-11-18T11:36:42.989Z,9.70
2022-11-18T11:40:08.427Z,9.90
2022-11-18T11:43:27.595Z,9.80
2022-11-18T11:46:41.385Z,9.90
2022-11-18T11:49:54.643Z,10.10
2022-11-18T11:53:16.010Z,10.10
2022-11-18T11:56:24.696Z,10.20
2022-11-18T11:59:33.738Z,10.30
2022-11-18T12:03:02.243Z,10.40
2022-11-18T12:06:09.053Z,10.50
2022-11-18T12:09:20.075Z,10.70
2022-11-18T12:12:35.964Z,10.70
2022-11-18T12:15:54.536Z,10.80
2022-11-18T12:19:01.129Z,10.80
2022-11-18T12:22:06.526Z,10.80
2022-11-18T12:26:00.381Z,10.70
2022-11-18T12:29:24.139Z,10.30
2022-11-18T12:32:30.622Z,10.50
2022-11-18T12:35:34.171Z,10.50
2022-11-18T12:38:38.678Z,10.50
2022-11-18T12:42:13.169Z,10.60
2022-11-18T12:45:58.431Z,10.80
2022-11-18T12:49:42.416Z,10.90
2022-11-18T12:52:54.052Z,11.00
2022-11-18T12:55:59.473Z,11.10
2022-11-18T12:59:03.319Z,11.20
2022-11-18T13:02:17.164Z,11.60
2022-11-18T13:05:22.326Z,12.20
2022-11-18T13:08:25.513Z,12.80
2022-11-18T13:11:46.625Z,12.90
2022-11-18T13:15:07.829Z,12.90
2022-11-18T13:18:16.530Z,12.40
2022-11-18T13:21:45.616Z,12.20
2022-11-18T13:24:50.582Z,12.00
2022-11-18T13:28:04.635Z,11.60
2022-11-18T13:31:16.362Z,11.40
2022-11-18T13:34:22.432Z,11.30
2022-11-18T13:37:28.057Z,11.00
2022-11-18T13:40:33.346Z,10.60
2022-11-18T13:43:38.295Z,10.40
2022-11-18T13:46:43.017Z,10.20
2022-11-18T13:49:52.303Z,10.10
2022-11-18T13:53:08.827Z,10.00
2022-11-18T13:56:20.239Z,9.80
2022-11-18T13:59:25.955Z,9.70
2022-11-18T14:02:29.223Z,9.80
2022-11-18T14:05:32.389Z,9.80
2022-11-18T14:08:37.007Z,9.90
2022-11-18T14:11:42.714Z,10.00
2022-11-18T14:14:47.826Z,10.10
2022-11-18T14:17:54.144Z,10.10
2022-11-18T14:20:57.384Z,10.20
2022-11-18T14:24:01.066Z,10.10
2022-11-18T14:27:37.504Z,10.10
2022-11-18T14:30:43.153Z,10.10
2022-11-18T14:34:06.358Z,10.10
2022-11-18T14:37:13.856Z,10.10
2022-11-18T14:40:17.926Z,10.10
2022-11-18T14:43:21.036Z,10.20
2022-11-18T14:46:25.962Z,10.20
2022-11-18T14:49:31.639Z,10.20
2022-11-18T14:52:34.811Z,10.20
2022-11-18T14:55:37.958Z,10.20
2022-11-18T14:58:41.072Z,10.30
2022-11-18T15:01:46.200Z,10.20
2022-11-18T15:04:50.757Z,10.20
2022-11-18T15:07:54.009Z,10.20
2022-11-18T15:10:57.199Z,10.10
2022-11-18T15:14:00.318Z,10.10
2022-11-18T15:17:05.490Z,10.10
2022-11-18T15:20:11.850Z,10.10
2022-11-18T15:23:14.943Z,10.10
2022-11-18T15:26:21.578Z,10.10
2022-11-18T15:29:26.251Z,10.10
2022-11-18T15:32:30.873Z,10.10
2022-11-18T15:35:33.951Z,10.10
2022-11-18T15:38:37.322Z,10.00
2022-11-18T15:41:42.972Z,10.00
2022-11-18T15:44:46.216Z,10.00
2022-11-18T15:47:53.211Z,10.00
2022-11-18T15:50:56.555Z,9.90
2022-11-18T15:53:59.692Z,9.90
2022-11-18T15:57:02.818Z,9.90
2022-11-18T16:00:06.584Z,9.80
2022-11-18T16:03:11.558Z,9.70
2022-11-18T16:06:14.892Z,9.60
2022-11-18T16:09:19.021Z,9.50
2022-11-18T16:12:39.877Z,9.50
2022-11-18T16:15:48.226Z,9.50
2022-11-18T16:18:55.327Z,9.40
2022-11-18T16:21:58.508Z,9.40
2022-11-18T16:25:01.629Z,9.40
2022-11-18T16:28:07.585Z,9.40
2022-11-18T16:31:28.428Z,9.40
2022-11-18T16:34:33.297Z,9.50
2022-11-18T16:37:36.593Z,9.30
2022-11-18T16:40:40.085Z,9.30
2022-11-18T16:43:43.413Z,9.30
2022-11-18T16:46:49.554Z,9.40
2022-11-18T16:49:54.202Z,9.40
2022-11-18T16:52:58.424Z,9.40
2022-11-18T16:56:04.369Z,9.50
2022-11-18T16:59:12.763Z,9.50
2022-11-18T17:02:20.518Z,9.50
2022-11-18T17:05:25.168Z,9.50
2022-11-18T17:08:28.599Z,9.50
2022-11-18T17:11:32.553Z,9.60
2022-11-18T17:14:38.676Z,9.60
2022-11-18T17:21:08.298Z,9.70
2022-11-18T17:24:14.927Z,9.70
2022-11-18T17:27:18.048Z,9.70
2022-11-18T17:30:21.272Z,9.70
2022-11-18T17:33:25.104Z,9.70
2022-11-18T17:36:30.985Z,9.70
2022-11-18T17:39:34.147Z,9.80
2022-11-18T17:42:37.633Z,9.80
2022-11-18T17:45:42.268Z,9.80
2022-11-18T17:48:45.549Z,9.80
2022-11-18T17:51:51.775Z,9.80
2022-11-18T17:54:55.157Z,9.80
2022-11-18T17:57:58.359Z,9.50
2022-11-18T18:01:09.389Z,9.60
2022-11-18T18:04:20.364Z,9.50
2022-11-18T18:07:25.440Z,9.60
2022-11-18T18:10:28.955Z,9.60
2022-11-18T18:13:50.345Z,9.60
2022-11-18T18:16:54.002Z,9.60
2022-11-18T18:19:58.071Z,9.60
2022-11-18T18:23:03.570Z,9.60
2022-11-18T18:26:09.703Z,9.60
2022-11-18T18:29:13.937Z,9.60
2022-11-18T18:32:17.731Z,9.60
2022-11-18T18:35:24.958Z,9.60
2022-11-18T18:38:32.955Z,9.60
2022-11-18T18:41:38.697Z,9.60
2022-11-18T18:44:59.573Z,9.50
2022-11-18T18:48:05.879Z,9.50
2022-11-18T18:51:10.913Z,9.50
2022-11-18T18:54:18.336Z,9.40
2022-11-18T18:57:22.769Z,9.40
2022-11-18T19:00:27.154Z,9.30
2022-11-18T19:03:31.191Z,9.30
2022-11-18T19:10:05.816Z,9.30
2022-11-18T19:13:09.423Z,9.30
2022-11-18T19:16:16.277Z,9.30
2022-11-18T19:19:41.915Z,9.30
2022-11-18T19:22:45.977Z,9.40
2022-11-18T19:25:51.755Z,9.40
2022-11-18T19:28:55.621Z,9.50
2022-11-18T19:31:59.815Z,9.50
2022-11-18T19:35:03.367Z,9.50
2022-11-18T19:38:09.240Z,9.50
2022-11-18T19:41:15.825Z,9.50
2022-11-18T19:44:19.313Z,9.50
2022-11-18T19:47:23.582Z,9.50
2022-11-18T19:50:28.166Z,9.50
2022-11-18T19:53:36.653Z,9.50
2022-11-18T19:56:42.596Z,9.50
2022-11-18T19:59:47.441Z,9.50
2022-11-18T20:02:51.878Z,9.50
2022-11-18T20:05:55.567Z,9.50
2022-11-18T20:09:00.446Z,9.50
2022-11-18T20:12:06.435Z,9.50
2022-11-18T20:15:11.861Z,9.50
2022-11-18T20:18:15.996Z,9.50
2022-11-18T20:21:22.691Z,9.40
2022-11-18T20:24:27.803Z,9.40
2022-11-18T20:27:33.170Z,9.40
2022-11-18T20:30:37.922Z,9.40
2022-11-18T20:33:44.435Z,9.40
2022-11-18T20:36:51.999Z,9.40
2022-11-18T20:39:55.880Z,9.40
2022-11-18T20:43:13.957Z,9.50
2022-11-18T20:46:20.763Z,9.40
2022-11-18T20:49:27.211Z,9.50
2022-11-18T20:52:30.879Z,9.50
2022-11-18T20:55:39.894Z,9.60
2022-11-18T20:58:45.428Z,9.60
2022-11-18T21:01:49.728Z,9.60
2022-11-18T21:04:52.983Z,9.60
2022-11-18T21:07:56.210Z,9.60
2022-11-18T21:11:03.553Z,9.40
2022-11-18T21:14:24.916Z,9.40
2022-11-18T21:17:29.250Z,9.30
2022-11-18T21:20:50.457Z,9.30
2022-11-18T21:23:55.462Z,9.30
2022-11-18T21:27:00.329Z,9.30
2022-11-18T21:30:05.475Z,9.30
2022-11-18T21:33:08.973Z,9.30
2022-11-18T21:36:12.826Z,9.30
2022-11-18T21:39:16.617Z,9.20
2022-11-18T21:42:20.146Z,9.20
2022-11-18T21:45:24.744Z,9.20
2022-11-18T21:48:27.939Z,9.30
2022-11-18T21:51:32.239Z,9.30
2022-11-18T21:54:36.817Z,9.30
2022-11-18T21:57:42.617Z,9.30
2022-11-18T22:00:47.233Z,9.30
2022-11-18T22:03:55.320Z,9.20
2022-11-18T22:06:59.024Z,9.20
2022-11-18T22:10:02.233Z,9.20
2022-11-18T22:13:07.053Z,9.10
2022-11-18T22:16:12.865Z,9.20
2022-11-18T22:19:15.952Z,9.20
2022-11-18T22:22:19.071Z,9.20
2022-11-18T22:25:22.152Z,9.30
2022-11-18T22:28:25.581Z,9.30
2022-11-18T22:31:30.252Z,9.30
2022-11-18T22:34:33.673Z,9.30
2022-11-18T22:37:36.770Z,9.40
2022-11-18T22:40:39.861Z,9.40
2022-11-18T22:43:41.964Z,9.40
2022-11-18T22:46:47.075Z,9.30
2022-11-18T22:49:54.980Z,9.30
2022-11-18T22:52:59.353Z,9.20
2022-11-18T22:56:03.986Z,9.30
2022-11-18T22:59:07.128Z,9.20
2022-11-18T23:02:11.649Z,9.20
2022-11-18T23:05:14.843Z,9.20
2022-11-18T23:08:17.977Z,9.20
2022-11-18T23:11:35.669Z,9.00
2022-11-18T23:14:38.804Z,9.10
2022-11-18T23:17:43.286Z,9.10
2022-11-18T23:20:46.509Z,9.00
2022-11-18T23:23:49.638Z,8.80
2022-11-18T23:26:52.731Z,8.80
2022-11-18T23:29:55.850Z,8.70
2022-11-18T23:33:00.471Z,8.70
2022-11-18T23:36:04.641Z,8.80
2022-11-18T23:39:08.017Z,8.70
2022-11-18T23:42:11.114Z,8.60
2022-11-18T23:45:14.321Z,8.60
2022-11-18T23:48:19.206Z,8.70
2022-11-18T23:51:23.936Z,8.70
2022-11-18T23:54:27.040Z,8.60
2022-11-18T23:57:30.175Z,8.50
